sensor_id;sensor_type;location;lat;lon;timestamp;P1;durP1;ratioP1;P2;durP2;ratioP2
1533;SDS011;760;48.822;9.304;2023-03-16T05:05:36;8.77;;;7.68;;
1533;SDS011;760;48.822;9.304;2023-03-16T05:08:03;16.23;;;5.90;;
1533;SDS011;760;48.822;9.304;2023-03-16T05:10:30;8.68;;;6.47;;
1533;SDS011;760;48.822;9.304;2023-03-16T05:12:57;7.95;;;5.70;;
1533;SDS011;760;48.822;9.304;2023-03-16T05:15:23;9.90;;;7.67;;
1533;SDS011;760;48.822;9.304;2023-03-16T05:17:48;11.67;;;5.80;;
1533;SDS011;760;48.822;9.304;2023-03-16T05:20:14;11.23;;;7.80;;
1533;SDS011;760;48.822;9.304;2023-03-16T05:22:43;9.53;;;7.23;;
1533;SDS011;760;48.822;9.304;2023-03-16T05:25:10;8.65;;;6.75;;
1533;SDS011;760;48.822;9.304;2023-03-16T05:27:49;12.43;;;8.05;;
1533;SDS011;760;48.822;9.304;2023-03-16T05:30:16;6.00;;;5.25;;
1533;SDS011;760;48.822;9.304;2023-03-16T05:32:43;14.23;;;7.95;;
1533;SDS011;760;48.822;9.304;2023-03-16T05:35:10;13.70;;;7.30;;
1533;SDS011;760;48.822;9.304;2023-03-16T05:37:39;10.88;;;6.95;;
1533;SDS011;760;48.822;9.304;2023-03-16T05:40:06;9.65;;;7.10;;
1533;SDS011;760;48.822;9.304;2023-03-16T05:42:47;12.80;;;7.45;;
1533;SDS011;760;48.822;9.304;2023-03-16T05:45:14;8.30;;;7.00;;
1533;SDS011;760;48.822;9.304;2023-03-16T05:47:41;7.18;;;6.38;;
1533;SDS011;760;48.822;9.304;2023-03-16T05:50:08;12.93;;;7.15;;
1533;SDS011;760;48.822;9.304;2023-03-16T05:52:35;7.03;;;6.13;;
1533;SDS011;760;48.822;9.304;2023-03-16T05:55:03;10.23;;;6.35;;
1533;SDS011;760;48.822;9.304;2023-03-16T05:57:30;12.02;;;7.68;;
1533;SDS011;760;48.822;9.304;2023-03-16T05:59:56;9.68;;;6.78;;
1533;SDS011;760;48.822;9.304;2023-03-16T06:02:21;8.30;;;7.20;;
1533;SDS011;760;48.822;9.304;2023-03-16T06:04:47;15.50;;;8.43;;
1533;SDS011;760;48.822;9.304;2023-03-16T06:07:13;9.50;;;7.67;;
1533;SDS011;760;48.822;9.304;2023-03-16T06:09:38;9.80;;;6.63;;
1533;SDS011;760;48.822;9.304;2023-03-16T06:12:04;10.40;;;5.47;;
1533;SDS011;760;48.822;9.304;2023-03-16T06:14:30;11.60;;;9.47;;
1533;SDS011;760;48.822;9.304;2023-03-16T06:16:55;10.40;;;7.97;;
1533;SDS011;760;48.822;9.304;2023-03-16T06:19:21;13.20;;;8.10;;
1533;SDS011;760;48.822;9.304;2023-03-16T06:21:46;15.23;;;7.13;;
1533;SDS011;760;48.822;9.304;2023-03-16T06:24:12;6.90;;;6.13;;
1533;SDS011;760;48.822;9.304;2023-03-16T06:26:38;9.67;;;7.70;;
1533;SDS011;760;48.822;9.304;2023-03-16T06:29:04;12.80;;;8.80;;
1533;SDS011;760;48.822;9.304;2023-03-16T06:31:30;11.32;;;7.97;;
1533;SDS011;760;48.822;9.304;2023-03-16T06:33:58;12.52;;;7.68;;
1533;SDS011;760;48.822;9.304;2023-03-16T06:36:24;10.90;;;8.70;;
1533;SDS011;760;48.822;9.304;2023-03-16T06:38:49;14.63;;;10.30;;
1533;SDS011;760;48.822;9.304;2023-03-16T06:41:15;16.13;;;8.67;;
1533;SDS011;760;48.822;9.304;2023-03-16T06:43:41;10.50;;;6.40;;
1533;SDS011;760;48.822;9.304;2023-03-16T06:46:07;9.57;;;6.80;;
1533;SDS011;760;48.822;9.304;2023-03-16T06:48:32;12.50;;;9.07;;
1533;SDS011;760;48.822;9.304;2023-03-16T06:50:58;10.87;;;7.73;;
1533;SDS011;760;48.822;9.304;2023-03-16T06:53:24;13.00;;;8.90;;
1533;SDS011;760;48.822;9.304;2023-03-16T06:55:50;14.23;;;8.10;;
1533;SDS011;760;48.822;9.304;2023-03-16T06:58:15;7.50;;;6.70;;
1533;SDS011;760;48.822;9.304;2023-03-16T07:00:41;6.93;;;6.20;;
1533;SDS011;760;48.822;9.304;2023-03-16T07:03:06;11.00;;;7.00;;
1533;SDS011;760;48.822;9.304;2023-03-16T07:05:32;6.97;;;5.53;;
1533;SDS011;760;48.822;9.304;2023-03-16T07:07:58;7.23;;;5.50;;
1533;SDS011;760;48.822;9.304;2023-03-16T07:10:24;7.10;;;5.10;;
1533;SDS011;760;48.822;9.304;2023-03-16T07:12:49;8.43;;;6.63;;
1533;SDS011;760;48.822;9.304;2023-03-16T07:15:15;5.70;;;4.63;;
1533;SDS011;760;48.822;9.304;2023-03-16T07:17:41;5.50;;;5.10;;
1533;SDS011;760;48.822;9.304;2023-03-16T07:20:07;5.90;;;4.60;;
1533;SDS011;760;48.822;9.304;2023-03-16T07:22:35;4.45;;;4.05;;
1533;SDS011;760;48.822;9.304;2023-03-16T07:25:02;4.65;;;3.85;;
1533;SDS011;760;48.822;9.304;2023-03-16T07:27:28;4.20;;;3.80;;
1533;SDS011;760;48.822;9.304;2023-03-16T07:29:55;6.53;;;5.25;;
1533;SDS011;760;48.822;9.304;2023-03-16T07:32:21;5.70;;;4.50;;
1533;SDS011;760;48.822;9.304;2023-03-16T07:34:47;5.13;;;4.70;;
1533;SDS011;760;48.822;9.304;2023-03-16T07:37:13;5.00;;;4.33;;
1533;SDS011;760;48.822;9.304;2023-03-16T07:39:40;8.67;;;5.13;;
1533;SDS011;760;48.822;9.304;2023-03-16T07:42:06;5.53;;;4.90;;
1533;SDS011;760;48.822;9.304;2023-03-16T07:44:32;6.40;;;5.30;;
1533;SDS011;760;48.822;9.304;2023-03-16T07:46:58;6.33;;;5.40;;
1533;SDS011;760;48.822;9.304;2023-03-16T07:49:23;4.90;;;4.43;;
1533;SDS011;760;48.822;9.304;2023-03-16T07:51:49;4.97;;;4.40;;
1533;SDS011;760;48.822;9.304;2023-03-16T07:54:15;5.50;;;4.57;;
1533;SDS011;760;48.822;9.304;2023-03-16T07:56:41;7.07;;;5.90;;
1533;SDS011;760;48.822;9.304;2023-03-16T07:59:06;5.60;;;4.50;;
1533;SDS011;760;48.822;9.304;2023-03-16T08:01:32;8.13;;;5.00;;
1533;SDS011;760;48.822;9.304;2023-03-16T08:03:58;5.20;;;4.63;;
1533;SDS011;760;48.822;9.304;2023-03-16T08:06:25;5.53;;;4.60;;
1533;SDS011;760;48.822;9.304;2023-03-16T08:08:51;5.43;;;5.00;;
1533;SDS011;760;48.822;9.304;2023-03-16T08:11:17;5.80;;;4.83;;
1533;SDS011;760;48.822;9.304;2023-03-16T08:13:47;5.50;;;5.00;;
1533;SDS011;760;48.822;9.304;2023-03-16T08:16:17;5.93;;;5.17;;
1533;SDS011;760;48.822;9.304;2023-03-16T08:18:47;6.27;;;5.63;;
1533;SDS011;760;48.822;9.304;2023-03-16T08:21:14;4.73;;;3.90;;
1533;SDS011;760;48.822;9.304;2023-03-16T08:23:44;4.93;;;4.53;;
1533;SDS011;760;48.822;9.304;2023-03-16T08:26:16;5.57;;;5.07;;
1533;SDS011;760;48.822;9.304;2023-03-16T08:28:44;5.50;;;5.00;;
1533;SDS011;760;48.822;9.304;2023-03-16T08:31:11;5.00;;;4.47;;
1533;SDS011;760;48.822;9.304;2023-03-16T08:33:38;5.77;;;5.27;;
1533;SDS011;760;48.822;9.304;2023-03-16T08:36:06;6.07;;;5.47;;
1533;SDS011;760;48.822;9.304;2023-03-16T08:38:32;5.40;;;4.80;;
1533;SDS011;760;48.822;9.304;2023-03-16T08:40:58;6.50;;;4.67;;
1533;SDS011;760;48.822;9.304;2023-03-16T08:43:24;5.87;;;4.50;;
1533;SDS011;760;48.822;9.304;2023-03-16T08:45:51;4.90;;;4.50;;
1533;SDS011;760;48.822;9.304;2023-03-16T08:48:17;4.90;;;4.27;;
1533;SDS011;760;48.822;9.304;2023-03-16T08:50:44;6.43;;;5.77;;
1533;SDS011;760;48.822;9.304;2023-03-16T08:53:10;6.17;;;5.00;;
1533;SDS011;760;48.822;9.304;2023-03-16T08:55:37;5.40;;;4.50;;
1533;SDS011;760;48.822;9.304;2023-03-16T08:58:05;5.40;;;4.37;;
1533;SDS011;760;48.822;9.304;2023-03-16T09:00:34;4.03;;;3.63;;
1533;SDS011;760;48.822;9.304;2023-03-16T09:03:00;5.90;;;5.20;;
1533;SDS011;760;48.822;9.304;2023-03-16T09:05:27;5.07;;;4.57;;
1533;SDS011;760;48.822;9.304;2023-03-16T09:07:53;4.97;;;4.57;;
1533;SDS011;760;48.822;9.304;2023-03-16T09:10:20;4.57;;;4.13;;
1533;SDS011;760;48.822;9.304;2023-03-16T09:12:47;6.43;;;5.43;;
1533;SDS011;760;48.822;9.304;2023-03-16T09:15:14;6.10;;;4.60;;
1533;SDS011;760;48.822;9.304;2023-03-16T09:17:40;4.30;;;3.97;;
1533;SDS011;760;48.822;9.304;2023-03-16T09:20:07;3.80;;;3.60;;
1533;SDS011;760;48.822;9.304;2023-03-16T09:22:34;4.77;;;4.37;;
1533;SDS011;760;48.822;9.304;2023-03-16T09:25:02;4.10;;;3.50;;
1533;SDS011;760;48.822;9.304;2023-03-16T09:27:29;4.57;;;3.97;;
1533;SDS011;760;48.822;9.304;2023-03-16T09:29:55;4.17;;;3.40;;
1533;SDS011;760;48.822;9.304;2023-03-16T09:32:21;4.00;;;3.70;;
1533;SDS011;760;48.822;9.304;2023-03-16T09:34:47;4.57;;;4.17;;
1533;SDS011;760;48.822;9.304;2023-03-16T09:37:13;4.20;;;3.37;;
1533;SDS011;760;48.822;9.304;2023-03-16T09:39:39;4.60;;;3.73;;
1533;SDS011;760;48.822;9.304;2023-03-16T09:42:25;4.33;;;3.93;;
1533;SDS011;760;48.822;9.304;2023-03-16T09:47:59;3.87;;;3.57;;
1533;SDS011;760;48.822;9.304;2023-03-16T09:50:29;5.50;;;3.73;;
1533;SDS011;760;48.822;9.304;2023-03-16T09:55:37;3.80;;;3.40;;
1533;SDS011;760;48.822;9.304;2023-03-16T09:58:06;3.30;;;2.80;;
1533;SDS011;760;48.822;9.304;2023-03-16T10:00:53;3.07;;;2.87;;
1533;SDS011;760;48.822;9.304;2023-03-16T10:03:58;3.10;;;2.70;;
1533;SDS011;760;48.822;9.304;2023-03-16T10:06:53;3.23;;;2.80;;
1533;SDS011;760;48.822;9.304;2023-03-16T10:09:54;2.93;;;2.67;;
1533;SDS011;760;48.822;9.304;2023-03-16T10:12:24;3.20;;;2.90;;
1533;SDS011;760;48.822;9.304;2023-03-16T10:20:37;3.20;;;2.87;;
1533;SDS011;760;48.822;9.304;2023-03-16T10:23:22;3.10;;;2.80;;
1533;SDS011;760;48.822;9.304;2023-03-16T10:25:52;7.30;;;4.40;;
1533;SDS011;760;48.822;9.304;2023-03-16T10:30:47;3.30;;;3.00;;
1533;SDS011;760;48.822;9.304;2023-03-16T10:35:45;2.17;;;2.07;;
1533;SDS011;760;48.822;9.304;2023-03-16T10:43:46;2.77;;;2.57;;
1533;SDS011;760;48.822;9.304;2023-03-16T10:46:16;2.93;;;2.53;;
1533;SDS011;760;48.822;9.304;2023-03-16T10:48:49;2.43;;;1.93;;
1533;SDS011;760;48.822;9.304;2023-03-16T10:51:24;2.60;;;2.40;;
1533;SDS011;760;48.822;9.304;2023-03-16T10:53:55;6.20;;;2.60;;
1533;SDS011;760;48.822;9.304;2023-03-16T10:56:24;2.70;;;2.30;;
1533;SDS011;760;48.822;9.304;2023-03-16T10:58:51;2.33;;;2.10;;
1533;SDS011;760;48.822;9.304;2023-03-16T11:01:22;2.53;;;2.33;;
1533;SDS011;760;48.822;9.304;2023-03-16T11:03:51;2.50;;;2.10;;
1533;SDS011;760;48.822;9.304;2023-03-16T11:06:26;2.50;;;2.30;;
1533;SDS011;760;48.822;9.304;2023-03-16T11:09:03;2.93;;;2.07;;
1533;SDS011;760;48.822;9.304;2023-03-16T11:11:32;2.80;;;2.50;;
1533;SDS011;760;48.822;9.304;2023-03-16T11:14:00;2.60;;;2.40;;
1533;SDS011;760;48.822;9.304;2023-03-16T11:19:31;2.50;;;2.30;;
1533;SDS011;760;48.822;9.304;2023-03-16T11:22:16;3.97;;;2.67;;
1533;SDS011;760;48.822;9.304;2023-03-16T11:27:22;2.20;;;2.10;;
1533;SDS011;760;48.822;9.304;2023-03-16T11:32:40;3.00;;;2.40;;
1533;SDS011;760;48.822;9.304;2023-03-16T11:35:12;9.43;;;2.90;;
1533;SDS011;760;48.822;9.304;2023-03-16T11:38:01;2.60;;;2.40;;
1533;SDS011;760;48.822;9.304;2023-03-16T11:41:00;2.13;;;2.03;;
1533;SDS011;760;48.822;9.304;2023-03-16T11:46:26;2.77;;;2.57;;
1533;SDS011;760;48.822;9.304;2023-03-16T12:06:18;1.97;;;1.87;;
1533;SDS011;760;48.822;9.304;2023-03-16T12:14:31;1.63;;;1.52;;
1533;SDS011;760;48.822;9.304;2023-03-16T12:17:24;2.83;;;2.30;;
1533;SDS011;760;48.822;9.304;2023-03-16T12:22:45;2.20;;;2.10;;
1533;SDS011;760;48.822;9.304;2023-03-16T12:25:37;2.50;;;2.30;;
1533;SDS011;760;48.822;9.304;2023-03-16T12:28:26;1.85;;;1.73;;
1533;SDS011;760;48.822;9.304;2023-03-16T12:39:16;2.53;;;1.90;;
1533;SDS011;760;48.822;9.304;2023-03-16T12:42:25;2.10;;;1.90;;
1533;SDS011;760;48.822;9.304;2023-03-16T12:45:25;1.87;;;1.77;;
1533;SDS011;760;48.822;9.304;2023-03-16T12:50:53;2.63;;;1.30;;
1533;SDS011;760;48.822;9.304;2023-03-16T12:53:26;1.93;;;1.80;;
1533;SDS011;760;48.822;9.304;2023-03-16T12:56:07;2.27;;;2.00;;
1533;SDS011;760;48.822;9.304;2023-03-16T12:58:44;2.00;;;1.40;;
1533;SDS011;760;48.822;9.304;2023-03-16T13:01:13;3.33;;;1.53;;
1533;SDS011;760;48.822;9.304;2023-03-16T13:03:41;2.30;;;1.80;;
1533;SDS011;760;48.822;9.304;2023-03-16T13:06:15;1.93;;;1.63;;
1533;SDS011;760;48.822;9.304;2023-03-16T13:08:53;2.20;;;1.30;;
1533;SDS011;760;48.822;9.304;2023-03-16T13:11:24;2.60;;;1.80;;
1533;SDS011;760;48.822;9.304;2023-03-16T13:16:29;2.20;;;1.73;;
1533;SDS011;760;48.822;9.304;2023-03-16T13:18:57;2.00;;;1.20;;
1533;SDS011;760;48.822;9.304;2023-03-16T13:24:12;1.53;;;1.43;;
1533;SDS011;760;48.822;9.304;2023-03-16T13:26:47;1.70;;;1.40;;
1533;SDS011;760;48.822;9.304;2023-03-16T13:29:37;1.67;;;1.47;;
1533;SDS011;760;48.822;9.304;2023-03-16T13:32:06;2.00;;;1.67;;
1533;SDS011;760;48.822;9.304;2023-03-16T13:34:51;1.83;;;1.73;;
1533;SDS011;760;48.822;9.304;2023-03-16T13:37:20;2.03;;;1.90;;
1533;SDS011;760;48.822;9.304;2023-03-16T13:42:45;1.97;;;1.73;;
1533;SDS011;760;48.822;9.304;2023-03-16T13:45:38;2.00;;;1.80;;
1533;SDS011;760;48.822;9.304;2023-03-16T13:48:03;2.50;;;1.90;;
1533;SDS011;760;48.822;9.304;2023-03-16T13:50:33;2.33;;;1.83;;
1533;SDS011;760;48.822;9.304;2023-03-16T13:53:03;2.83;;;1.90;;
1533;SDS011;760;48.822;9.304;2023-03-16T13:55:35;2.07;;;1.80;;
1533;SDS011;760;48.822;9.304;2023-03-16T13:58:02;1.60;;;1.50;;
1533;SDS011;760;48.822;9.304;2023-03-16T14:00:35;1.53;;;1.43;;
1533;SDS011;760;48.822;9.304;2023-03-16T14:03:13;2.17;;;1.70;;
1533;SDS011;760;48.822;9.304;2023-03-16T14:05:40;1.60;;;1.50;;
1533;SDS011;760;48.822;9.304;2023-03-16T14:08:13;3.07;;;2.00;;
1533;SDS011;760;48.822;9.304;2023-03-16T14:10:42;2.43;;;2.10;;
1533;SDS011;760;48.822;9.304;2023-03-16T14:13:30;2.27;;;2.07;;
1533;SDS011;760;48.822;9.304;2023-03-16T14:16:14;3.13;;;1.90;;
1533;SDS011;760;48.822;9.304;2023-03-16T14:18:43;1.80;;;1.70;;
1533;SDS011;760;48.822;9.304;2023-03-16T14:21:16;2.50;;;2.30;;
1533;SDS011;760;48.822;9.304;2023-03-16T14:23:47;1.97;;;1.83;;
1533;SDS011;760;48.822;9.304;2023-03-16T14:26:17;1.70;;;1.60;;
1533;SDS011;760;48.822;9.304;2023-03-16T14:31:39;2.43;;;2.20;;
1533;SDS011;760;48.822;9.304;2023-03-16T14:39:35;2.90;;;2.47;;
1533;SDS011;760;48.822;9.304;2023-03-16T14:42:05;2.13;;;2.03;;
1533;SDS011;760;48.822;9.304;2023-03-16T14:44:39;2.17;;;2.07;;
1533;SDS011;760;48.822;9.304;2023-03-16T14:47:05;3.23;;;2.20;;
1533;SDS011;760;48.822;9.304;2023-03-16T14:49:32;2.83;;;2.30;;
1533;SDS011;760;48.822;9.304;2023-03-16T14:54:58;5.80;;;2.33;;
1533;SDS011;760;48.822;9.304;2023-03-16T14:57:24;2.60;;;2.40;;
1533;SDS011;760;48.822;9.304;2023-03-16T14:59:53;2.20;;;2.10;;
1533;SDS011;760;48.822;9.304;2023-03-16T15:02:21;3.13;;;2.67;;
1533;SDS011;760;48.822;9.304;2023-03-16T15:04:55;2.13;;;1.90;;
1533;SDS011;760;48.822;9.304;2023-03-16T15:07:31;2.30;;;2.10;;
1533;SDS011;760;48.822;9.304;2023-03-16T15:10:06;2.33;;;2.13;;
1533;SDS011;760;48.822;9.304;2023-03-16T15:12:41;3.23;;;2.43;;
1533;SDS011;760;48.822;9.304;2023-03-16T15:15:18;2.97;;;2.70;;
1533;SDS011;760;48.822;9.304;2023-03-16T15:17:46;2.97;;;2.67;;
1533;SDS011;760;48.822;9.304;2023-03-16T15:20:37;2.40;;;2.20;;
1533;SDS011;760;48.822;9.304;2023-03-16T15:23:03;2.27;;;2.10;;
1533;SDS011;760;48.822;9.304;2023-03-16T15:25:34;3.70;;;2.70;;
1533;SDS011;760;48.822;9.304;2023-03-16T15:28:20;6.40;;;2.90;;
1533;SDS011;760;48.822;9.304;2023-03-16T15:30:48;4.10;;;2.33;;
1533;SDS011;760;48.822;9.304;2023-03-16T15:33:15;2.43;;;2.27;;
1533;SDS011;760;48.822;9.304;2023-03-16T15:35:41;2.70;;;2.50;;
1533;SDS011;760;48.822;9.304;2023-03-16T15:38:18;3.57;;;2.53;;
1533;SDS011;760;48.822;9.304;2023-03-16T15:41:07;2.10;;;1.90;;
1533;SDS011;760;48.822;9.304;2023-03-16T15:43:37;2.53;;;2.33;;
1533;SDS011;760;48.822;9.304;2023-03-16T15:46:03;2.50;;;2.30;;
1533;SDS011;760;48.822;9.304;2023-03-16T15:48:30;2.93;;;2.73;;
1533;SDS011;760;48.822;9.304;2023-03-16T15:53:46;3.63;;;2.50;;
1533;SDS011;760;48.822;9.304;2023-03-16T15:56:16;2.30;;;2.10;;
1533;SDS011;760;48.822;9.304;2023-03-16T15:58:46;3.07;;;2.80;;
1533;SDS011;760;48.822;9.304;2023-03-16T16:01:19;2.63;;;2.43;;
1533;SDS011;760;48.822;9.304;2023-03-16T16:03:50;2.50;;;2.00;;
1533;SDS011;760;48.822;9.304;2023-03-16T16:06:18;2.83;;;2.20;;
1533;SDS011;760;48.822;9.304;2023-03-16T16:08:44;3.63;;;2.37;;
1533;SDS011;760;48.822;9.304;2023-03-16T16:11:14;1.77;;;1.67;;
1533;SDS011;760;48.822;9.304;2023-03-16T16:13:41;3.50;;;3.20;;
1533;SDS011;760;48.822;9.304;2023-03-16T16:16:09;1.90;;;1.80;;
1533;SDS011;760;48.822;9.304;2023-03-16T16:18:37;2.40;;;2.20;;
1533;SDS011;760;48.822;9.304;2023-03-16T16:21:04;2.77;;;2.53;;
1533;SDS011;760;48.822;9.304;2023-03-16T16:23:30;1.70;;;1.60;;
1533;SDS011;760;48.822;9.304;2023-03-16T16:26:00;2.80;;;2.07;;
1533;SDS011;760;48.822;9.304;2023-03-16T16:28:29;3.17;;;2.87;;
1533;SDS011;760;48.822;9.304;2023-03-16T16:30:55;2.37;;;2.10;;
1533;SDS011;760;48.822;9.304;2023-03-16T16:33:23;1.80;;;1.70;;
1533;SDS011;760;48.822;9.304;2023-03-16T16:35:54;1.87;;;1.77;;
1533;SDS011;760;48.822;9.304;2023-03-16T16:38:21;2.33;;;2.13;;
1533;SDS011;760;48.822;9.304;2023-03-16T16:40:48;1.67;;;1.57;;
1533;SDS011;760;48.822;9.304;2023-03-16T16:46:00;2.40;;;2.27;;
1533;SDS011;760;48.822;9.304;2023-03-16T16:48:38;1.57;;;1.40;;
1533;SDS011;760;48.822;9.304;2023-03-16T16:51:09;1.33;;;1.23;;
1533;SDS011;760;48.822;9.304;2023-03-16T16:53:43;1.00;;;1.00;;
1533;SDS011;760;48.822;9.304;2023-03-16T16:56:13;1.13;;;1.10;;
1533;SDS011;760;48.822;9.304;2023-03-16T16:58:41;2.22;;;2.03;;
1533;SDS011;760;48.822;9.304;2023-03-16T17:01:13;1.77;;;1.40;;
1533;SDS011;760;48.822;9.304;2023-03-16T17:03:44;1.98;;;1.60;;
1533;SDS011;760;48.822;9.304;2023-03-16T17:06:13;1.43;;;1.33;;
1533;SDS011;760;48.822;9.304;2023-03-16T17:08:42;1.52;;;1.33;;
1533;SDS011;760;48.822;9.304;2023-03-16T17:11:17;1.00;;;1.00;;
1533;SDS011;760;48.822;9.304;2023-03-16T17:13:45;2.10;;;1.73;;
1533;SDS011;760;48.822;9.304;2023-03-16T17:16:13;1.90;;;1.80;;
1533;SDS011;760;48.822;9.304;2023-03-16T17:18:40;2.50;;;2.30;;
1533;SDS011;760;48.822;9.304;2023-03-16T17:21:09;1.73;;;1.55;;
1533;SDS011;760;48.822;9.304;2023-03-16T17:23:39;1.67;;;1.58;;
1533;SDS011;760;48.822;9.304;2023-03-16T17:26:10;2.97;;;1.63;;
1533;SDS011;760;48.822;9.304;2023-03-16T17:28:55;1.48;;;1.38;;
1533;SDS011;760;48.822;9.304;2023-03-16T17:31:35;1.55;;;1.45;;
1533;SDS011;760;48.822;9.304;2023-03-16T17:34:12;1.30;;;1.27;;
1533;SDS011;760;48.822;9.304;2023-03-16T17:36:38;1.70;;;1.60;;
1533;SDS011;760;48.822;9.304;2023-03-16T17:39:05;1.70;;;1.60;;
1533;SDS011;760;48.822;9.304;2023-03-16T17:41:40;3.10;;;2.28;;
1533;SDS011;760;48.822;9.304;2023-03-16T17:44:06;2.30;;;2.20;;
1533;SDS011;760;48.822;9.304;2023-03-16T17:46:35;1.95;;;1.45;;
1533;SDS011;760;48.822;9.304;2023-03-16T17:49:01;1.73;;;1.63;;
1533;SDS011;760;48.822;9.304;2023-03-16T17:51:34;1.50;;;1.48;;
1533;SDS011;760;48.822;9.304;2023-03-16T17:54:02;1.50;;;1.40;;
1533;SDS011;760;48.822;9.304;2023-03-16T17:56:29;1.30;;;1.20;;
1533;SDS011;760;48.822;9.304;2023-03-16T17:58:56;2.60;;;2.10;;
1533;SDS011;760;48.822;9.304;2023-03-16T18:01:28;4.55;;;2.38;;
1533;SDS011;760;48.822;9.304;2023-03-16T18:04:01;1.45;;;1.35;;
1533;SDS011;760;48.822;9.304;2023-03-16T18:06:28;1.50;;;1.40;;
1533;SDS011;760;48.822;9.304;2023-03-16T18:08:55;1.40;;;1.30;;
1533;SDS011;760;48.822;9.304;2023-03-16T18:11:27;1.90;;;1.77;;
1533;SDS011;760;48.822;9.304;2023-03-16T18:13:58;3.08;;;2.53;;
1533;SDS011;760;48.822;9.304;2023-03-16T18:16:24;1.60;;;1.50;;
1533;SDS011;760;48.822;9.304;2023-03-16T18:18:56;1.70;;;1.52;;
1533;SDS011;760;48.822;9.304;2023-03-16T18:21:24;2.45;;;1.55;;
1533;SDS011;760;48.822;9.304;2023-03-16T18:23:51;2.45;;;2.20;;
1533;SDS011;760;48.822;9.304;2023-03-16T18:26:17;1.83;;;1.67;;
1533;SDS011;760;48.822;9.304;2023-03-16T18:28:43;1.42;;;1.33;;
1533;SDS011;760;48.822;9.304;2023-03-16T18:31:16;1.55;;;1.45;;
1533;SDS011;760;48.822;9.304;2023-03-16T18:33:48;1.90;;;1.67;;
1533;SDS011;760;48.822;9.304;2023-03-16T18:36:18;2.55;;;1.63;;
1533;SDS011;760;48.822;9.304;2023-03-16T18:38:47;1.90;;;1.80;;
1533;SDS011;760;48.822;9.304;2023-03-16T18:41:15;1.95;;;1.85;;
1533;SDS011;760;48.822;9.304;2023-03-16T18:43:46;2.05;;;1.80;;
1533;SDS011;760;48.822;9.304;2023-03-16T18:48:45;1.50;;;1.40;;
1533;SDS011;760;48.822;9.304;2023-03-16T18:51:11;2.03;;;1.63;;
1533;SDS011;760;48.822;9.304;2023-03-16T18:53:39;2.80;;;2.50;;
1533;SDS011;760;48.822;9.304;2023-03-16T18:56:04;2.43;;;2.23;;
1533;SDS011;760;48.822;9.304;2023-03-16T18:58:30;1.97;;;1.87;;
1533;SDS011;760;48.822;9.304;2023-03-16T19:00:57;3.07;;;2.70;;
1533;SDS011;760;48.822;9.304;2023-03-16T19:03:27;1.73;;;1.63;;
1533;SDS011;760;48.822;9.304;2023-03-16T19:05:56;24.52;;;2.67;;
1533;SDS011;760;48.822;9.304;2023-03-16T19:08:24;5.15;;;1.98;;
1533;SDS011;760;48.822;9.304;2023-03-16T19:10:52;7.18;;;2.95;;
1533;SDS011;760;48.822;9.304;2023-03-16T19:13:20;2.60;;;2.40;;
1533;SDS011;760;48.822;9.304;2023-03-16T19:15:48;5.05;;;2.20;;
1533;SDS011;760;48.822;9.304;2023-03-16T19:18:16;2.63;;;2.45;;
1533;SDS011;760;48.822;9.304;2023-03-16T19:20:42;2.20;;;2.10;;
1533;SDS011;760;48.822;9.304;2023-03-16T19:25:56;2.45;;;2.25;;
1533;SDS011;760;48.822;9.304;2023-03-16T19:28:55;4.03;;;3.00;;
1533;SDS011;760;48.822;9.304;2023-03-16T19:31:19;2.85;;;2.65;;
1533;SDS011;760;48.822;9.304;2023-03-16T19:33:47;3.13;;;2.80;;
1533;SDS011;760;48.822;9.304;2023-03-16T19:36:21;4.13;;;2.53;;
1533;SDS011;760;48.822;9.304;2023-03-16T19:38:57;2.30;;;2.10;;
1533;SDS011;760;48.822;9.304;2023-03-16T19:41:29;3.07;;;2.70;;
1533;SDS011;760;48.822;9.304;2023-03-16T19:44:12;2.88;;;2.67;;
1533;SDS011;760;48.822;9.304;2023-03-16T19:46:43;2.25;;;2.15;;
1533;SDS011;760;48.822;9.304;2023-03-16T19:49:20;2.88;;;2.60;;
1533;SDS011;760;48.822;9.304;2023-03-16T19:51:48;3.00;;;2.67;;
1533;SDS011;760;48.822;9.304;2023-03-16T19:54:25;3.00;;;2.42;;
1533;SDS011;760;48.822;9.304;2023-03-16T19:56:52;4.57;;;2.95;;
1533;SDS011;760;48.822;9.304;2023-03-16T19:59:20;2.55;;;2.35;;
1533;SDS011;760;48.822;9.304;2023-03-16T20:01:48;2.83;;;2.63;;
1533;SDS011;760;48.822;9.304;2023-03-16T20:04:19;3.47;;;2.90;;
1533;SDS011;760;48.822;9.304;2023-03-16T20:06:47;2.90;;;2.65;;
1533;SDS011;760;48.822;9.304;2023-03-16T20:09:13;3.60;;;3.30;;
1533;SDS011;760;48.822;9.304;2023-03-16T20:11:39;2.70;;;2.50;;
1533;SDS011;760;48.822;9.304;2023-03-16T20:14:17;5.07;;;2.90;;
1533;SDS011;760;48.822;9.304;2023-03-16T20:16:52;4.25;;;3.22;;
1533;SDS011;760;48.822;9.304;2023-03-16T20:19:17;3.60;;;2.83;;
1533;SDS011;760;48.822;9.304;2023-03-16T20:21:44;3.13;;;2.83;;
1533;SDS011;760;48.822;9.304;2023-03-16T20:24:14;3.63;;;3.30;;
1533;SDS011;760;48.822;9.304;2023-03-16T20:26:41;4.30;;;3.05;;
1533;SDS011;760;48.822;9.304;2023-03-16T20:29:16;5.75;;;3.63;;
1533;SDS011;760;48.822;9.304;2023-03-16T20:31:45;3.10;;;2.35;;
1533;SDS011;760;48.822;9.304;2023-03-16T20:34:20;4.28;;;3.88;;
1533;SDS011;760;48.822;9.304;2023-03-16T20:36:51;3.83;;;3.17;;
1533;SDS011;760;48.822;9.304;2023-03-16T20:39:17;3.17;;;2.87;;
1533;SDS011;760;48.822;9.304;2023-03-16T20:41:43;3.60;;;2.90;;
1533;SDS011;760;48.822;9.304;2023-03-16T20:44:13;3.55;;;3.10;;
1533;SDS011;760;48.822;9.304;2023-03-16T20:46:42;3.58;;;3.00;;
1533;SDS011;760;48.822;9.304;2023-03-16T20:49:42;3.13;;;2.60;;
1533;SDS011;760;48.822;9.304;2023-03-16T20:52:00;4.43;;;3.05;;
1533;SDS011;760;48.822;9.304;2023-03-16T20:54:27;3.63;;;2.40;;
1533;SDS011;760;48.822;9.304;2023-03-16T20:56:53;3.60;;;3.30;;
1533;SDS011;760;48.822;9.304;2023-03-16T20:59:20;3.10;;;2.83;;
1533;SDS011;760;48.822;9.304;2023-03-16T21:01:48;2.83;;;2.63;;
1533;SDS011;760;48.822;9.304;2023-03-16T21:04:22;2.78;;;2.58;;
1533;SDS011;760;48.822;9.304;2023-03-16T21:06:52;3.03;;;2.75;;
1533;SDS011;760;48.822;9.304;2023-03-16T21:09:19;2.75;;;2.50;;
1533;SDS011;760;48.822;9.304;2023-03-16T21:11:45;2.60;;;1.80;;
1533;SDS011;760;48.822;9.304;2023-03-16T21:14:29;3.10;;;2.42;;
1533;SDS011;760;48.822;9.304;2023-03-16T21:16:55;3.25;;;2.60;;
1533;SDS011;760;48.822;9.304;2023-03-16T21:19:22;2.78;;;2.58;;
1533;SDS011;760;48.822;9.304;2023-03-16T21:21:48;3.22;;;2.90;;
1533;SDS011;760;48.822;9.304;2023-03-16T21:24:14;5.28;;;3.95;;
1533;SDS011;760;48.822;9.304;2023-03-16T21:26:40;3.20;;;2.93;;
1533;SDS011;760;48.822;9.304;2023-03-16T21:29:11;4.55;;;3.58;;
1533;SDS011;760;48.822;9.304;2023-03-16T21:31:40;5.65;;;4.05;;
1533;SDS011;760;48.822;9.304;2023-03-16T21:34:16;4.10;;;3.80;;
1533;SDS011;760;48.822;9.304;2023-03-16T21:36:47;7.45;;;3.40;;
1533;SDS011;760;48.822;9.304;2023-03-16T21:39:16;4.00;;;3.30;;
1533;SDS011;760;48.822;9.304;2023-03-16T21:41:43;3.60;;;3.30;;
1533;SDS011;760;48.822;9.304;2023-03-16T21:44:09;4.00;;;3.17;;
1533;SDS011;760;48.822;9.304;2023-03-16T21:46:34;6.33;;;4.37;;
1533;SDS011;760;48.822;9.304;2023-03-16T21:49:00;5.07;;;3.70;;
1533;SDS011;760;48.822;9.304;2023-03-16T21:51:27;6.53;;;4.43;;
1533;SDS011;760;48.822;9.304;2023-03-16T21:53:56;3.70;;;3.17;;
1533;SDS011;760;48.822;9.304;2023-03-16T21:56:23;4.30;;;2.92;;
1533;SDS011;760;48.822;9.304;2023-03-16T21:58:50;5.60;;;4.15;;
1533;SDS011;760;48.822;9.304;2023-03-16T22:01:24;4.78;;;3.60;;
1533;SDS011;760;48.822;9.304;2023-03-16T22:03:55;5.38;;;3.50;;
1533;SDS011;760;48.822;9.304;2023-03-16T22:06:25;3.05;;;2.80;;
1533;SDS011;760;48.822;9.304;2023-03-16T22:08:54;4.60;;;3.88;;
1533;SDS011;760;48.822;9.304;2023-03-16T22:11:25;2.95;;;2.65;;
1533;SDS011;760;48.822;9.304;2023-03-16T22:13:52;4.45;;;2.70;;
1533;SDS011;760;48.822;9.304;2023-03-16T22:16:19;3.20;;;3.00;;
1533;SDS011;760;48.822;9.304;2023-03-16T22:18:47;3.20;;;2.72;;
1533;SDS011;760;48.822;9.304;2023-03-16T22:23:41;3.20;;;3.00;;
1533;SDS011;760;48.822;9.304;2023-03-16T22:26:09;3.63;;;3.28;;
1533;SDS011;760;48.822;9.304;2023-03-16T22:28:40;4.55;;;3.15;;
1533;SDS011;760;48.822;9.304;2023-03-16T22:31:06;2.10;;;1.90;;
1533;SDS011;760;48.822;9.304;2023-03-16T22:33:33;2.50;;;2.30;;
1533;SDS011;760;48.822;9.304;2023-03-16T22:36:05;3.63;;;3.33;;